Time;durP1;ratioP1;P1;durP2;ratioP2;P2;SDS_P1;SDS_P2;PMS_P1;PMS_P2;Temp;Humidity;BMP_temperature;BMP_pressure;BME280_temperature;BME280_humidity;BME280_pressure;Samples;Min_cycle;Max_cycle;Signal;HPM_P1;HPM_P2
2022/01/05 00:00:32;;;;;;;2.80;1.50;;;;;;;3.43;99.35;93938.44;6137481;23;20162;-79
2022/01/05 00:02:58;;;;;;;2.13;1.13;;;;;;;3.48;98.72;93941.41;6161260;23;20167;-78
2022/01/05 00:05:23;;;;;;;2.13;1.27;;;;;;;3.49;98.65;93953.28;6161824;23;20150;-79
2022/01/05 00:07:49;;;;;;;1.80;1.30;;;;;;;3.49;98.48;93947.34;6161918;23;20183;-79
2022/01/05 00:10:14;;;;;;;1.83;0.93;;;;;;;3.40;98.86;93949.81;6137544;23;20158;-79
2022/01/05 00:12:40;;;;;;;2.43;0.70;;;;;;;3.42;98.65;93944.53;6159520;23;20196;-78
2022/01/05 00:15:06;;;;;;;2.07;0.57;;;;;;;3.45;98.71;93930.63;6161902;23;20233;-78
2022/01/05 00:17:31;;;;;;;1.00;0.70;;;;;;;3.47;98.63;93944.94;6188402;23;20175;-78
2022/01/05 00:19:56;;;;;;;1.87;0.70;;;;;;;3.46;97.93;93933.06;6161905;23;20163;-79
2022/01/05 00:22:22;;;;;;;1.30;0.50;;;;;;;3.47;98.10;93944.13;6161639;23;20520;-81
2022/01/05 00:24:47;;;;;;;0.93;0.53;;;;;;;3.44;97.82;93941.81;6161733;23;20152;-80
2022/01/05 00:27:13;;;;;;;2.93;0.63;;;;;;;3.42;97.99;93947.09;6162429;23;20230;-79
2022/01/05 00:29:38;;;;;;;1.47;0.53;;;;;;;3.49;97.72;93939.66;6162139;23;20466;-80
2022/01/05 00:32:04;;;;;;;1.37;0.60;;;;;;;3.54;97.08;93938.28;6156369;23;20163;-80
2022/01/05 00:34:29;;;;;;;3.33;0.60;;;;;;;3.56;97.19;93922.72;6132427;23;20160;-80
2022/01/05 00:36:54;;;;;;;3.63;0.70;;;;;;;3.54;97.47;93919.50;6131796;23;20259;-79
2022/01/05 00:39:20;;;;;;;1.23;0.60;;;;;;;3.53;97.79;93917.84;6132823;23;20172;-80
2022/01/05 00:41:45;;;;;;;1.70;0.60;;;;;;;3.47;97.63;93921.84;6131843;23;20167;-78
2022/01/05 00:44:10;;;;;;;3.60;0.70;;;;;;;3.50;97.71;93897.63;6107942;23;20796;-80
2022/01/05 00:46:36;;;;;;;2.47;0.53;;;;;;;3.49;97.99;93907.09;6132017;23;20533;-79
2022/01/05 00:49:01;;;;;;;1.53;0.60;;;;;;;3.45;97.70;93910.09;6132060;23;20159;-78
2022/01/05 00:51:26;;;;;;;1.90;0.73;;;;;;;3.42;98.29;93918.88;6131910;23;20169;-78
2022/01/05 00:53:51;;;;;;;0.97;0.60;;;;;;;3.45;98.69;93916.03;6132212;23;20214;-79
2022/01/05 00:56:17;;;;;;;1.37;0.70;;;;;;;3.51;98.36;93914.63;6131519;23;20221;-78
2022/01/05 00:58:42;;;;;;;1.27;0.50;;;;;;;3.48;98.42;93907.25;6131219;23;20181;-78
2022/01/05 01:01:07;;;;;;;1.37;0.50;;;;;;;3.55;98.36;93919.34;6106757;23;20164;-79
2022/01/05 01:03:33;;;;;;;0.90;0.63;;;;;;;3.48;98.77;93915.75;6107482;23;20183;-78
2022/01/05 01:05:59;;;;;;;0.97;0.70;;;;;;;3.52;98.99;93921.38;6132314;23;20155;-78
2022/01/05 01:08:25;;;;;;;1.27;0.80;;;;;;;3.52;98.44;93911.13;6108290;23;20495;-79
2022/01/05 01:10:50;;;;;;;1.03;0.60;;;;;;;3.60;98.06;93921.47;6131517;23;20175;-79
2022/01/05 01:13:18;;;;;;;1.63;0.63;;;;;;;3.63;98.06;93923.75;6129571;23;20166;-79
2022/01/05 01:15:44;;;;;;;2.43;0.70;;;;;;;3.57;98.30;93937.97;6157168;23;20187;-78
2022/01/05 01:18:10;;;;;;;1.50;0.50;;;;;;;3.60;98.19;93937.69;6131870;23;20178;-79
2022/01/05 01:20:35;;;;;;;1.53;0.60;;;;;;;3.58;98.21;93937.03;6131491;23;20167;-78
2022/01/05 01:23:00;;;;;;;0.40;0.40;;;;;;;3.57;97.85;93937.97;6145999;23;20160;-78
2022/01/05 01:25:26;;;;;;;2.67;0.50;;;;;;;3.61;98.09;93947.00;6151807;23;20499;-79
2022/01/05 01:27:51;;;;;;;0.30;0.30;;;;;;;3.56;97.52;93941.50;6170012;23;20553;-79
2022/01/05 01:30:16;;;;;;;1.27;0.50;;;;;;;3.68;97.60;93948.03;6134393;23;20621;-79
2022/01/05 01:32:42;;;;;;;0.40;0.40;;;;;;;3.66;97.41;93949.94;6156847;23;20173;-81
2022/01/05 01:35:07;;;;;;;0.33;0.33;;;;;;;3.63;98.24;93950.25;6158127;23;20164;-80
2022/01/05 01:37:33;;;;;;;0.83;0.60;;;;;;;3.64;98.36;93951.84;6158188;23;20194;-79
2022/01/05 01:39:58;;;;;;;0.70;0.50;;;;;;;3.64;98.95;93957.00;6132461;23;20214;-78
2022/01/05 01:42:23;;;;;;;0.97;0.50;;;;;;;3.55;98.60;93957.84;6132886;23;20167;-80
2022/01/05 01:44:49;;;;;;;0.77;0.50;;;;;;;3.55;98.82;93957.03;6133850;23;20171;-81
2022/01/05 01:47:14;;;;;;;0.30;0.30;;;;;;;3.65;98.27;93953.47;6132951;23;20522;-79
2022/01/05 01:49:41;;;;;;;0.50;0.43;;;;;;;3.64;97.04;93957.00;6181977;23;20159;-78
2022/01/05 01:52:06;;;;;;;0.60;0.30;;;;;;;3.69;97.09;93975.31;6132607;23;20222;-79
2022/01/05 01:54:35;;;;;;;2.30;0.40;;;;;;;3.62;97.94;93971.72;6156682;23;20159;-79
2022/01/05 01:57:00;;;;;;;2.40;0.53;;;;;;;3.64;96.89;93969.03;6181431;23;20203;-78
2022/01/05 01:59:26;;;;;;;1.80;0.60;;;;;;;3.68;96.42;93968.56;6156781;23;20167;-78
2022/01/05 02:01:52;;;;;;;0.50;0.50;;;;;;;3.76;96.70;93970.41;6155974;23;20177;-80
2022/01/05 02:04:17;;;;;;;0.70;0.60;;;;;;;3.74;95.53;93984.38;6157575;23;20158;-82
2022/01/05 02:06:42;;;;;;;0.83;0.60;;;;;;;3.78;95.86;93989.03;6132413;23;20186;-80
2022/01/05 02:09:08;;;;;;;0.70;0.47;;;;;;;3.78;95.85;94003.66;6156639;23;20155;-80
2022/01/05 02:11:34;;;;;;;0.40;0.40;;;;;;;3.84;95.54;93992.81;6131177;23;20155;-80
2022/01/05 02:13:59;;;;;;;1.63;1.10;;;;;;;3.78;95.27;93977.97;6130950;23;20160;-80
2022/01/05 02:16:31;;;;;;;0.40;0.40;;;;;;;3.77;94.70;93972.03;6156153;23;20188;-80
2022/01/05 02:18:58;;;;;;;0.63;0.50;;;;;;;3.84;94.50;93979.97;6134810;23;20167;-80
2022/01/05 02:21:24;;;;;;;1.47;0.53;;;;;;;3.83;93.57;93973.22;6158527;23;20179;-81
2022/01/05 02:23:49;;;;;;;0.50;0.50;;;;;;;3.81;93.94;93975.13;6159192;23;20157;-80
2022/01/05 02:26:14;;;;;;;0.73;0.50;;;;;;;3.85;94.12;93973.88;6183315;23;20647;-80
2022/01/05 02:28:40;;;;;;;0.73;0.60;;;;;;;3.81;93.98;93962.28;6158279;23;20195;-81
2022/01/05 02:31:06;;;;;;;1.00;0.77;;;;;;;3.79;93.78;93951.34;6163676;23;20224;-79
2022/01/05 02:33:32;;;;;;;0.60;0.60;;;;;;;3.78;93.67;93958.25;6187942;23;20154;-80
2022/01/05 02:35:58;;;;;;;1.27;0.80;;;;;;;3.73;94.04;93960.44;6139146;23;20182;-77
2022/01/05 02:38:23;;;;;;;1.13;0.70;;;;;;;3.73;94.15;93968.16;6164011;23;20158;-80
2022/01/05 02:40:50;;;;;;;1.43;0.73;;;;;;;3.73;94.63;93977.63;6164180;23;20167;-79
2022/01/05 02:43:15;;;;;;;0.97;0.60;;;;;;;3.69;94.74;93984.78;6162276;23;20157;-79
2022/01/05 02:45:41;;;;;;;1.23;1.13;;;;;;;3.60;93.77;93983.06;6139419;23;20213;-80
2022/01/05 02:48:06;;;;;;;1.53;0.60;;;;;;;3.74;94.58;93999.75;6164480;23;20176;-80
2022/01/05 02:50:31;;;;;;;0.80;0.50;;;;;;;3.65;95.13;93991.97;6164132;23;20168;-81
2022/01/05 02:52:57;;;;;;;1.27;0.60;;;;;;;3.68;94.92;93988.31;6138592;23;20156;-79
2022/01/05 02:55:22;;;;;;;2.93;0.67;;;;;;;3.57;94.46;93997.00;6163393;23;20213;-79
2022/01/05 02:57:47;;;;;;;1.03;0.50;;;;;;;3.71;94.05;93993.16;6163341;23;20182;-80
2022/01/05 03:00:15;;;;;;;1.87;0.60;;;;;;;3.68;94.98;94003.69;6163737;23;20166;-80
2022/01/05 03:02:40;;;;;;;1.67;0.80;;;;;;;3.61;94.81;93994.97;6162662;23;20230;-78
2022/01/05 03:05:06;;;;;;;0.93;0.60;;;;;;;3.60;95.00;93991.59;6163314;23;20163;-79
2022/01/05 03:07:35;;;;;;;1.00;0.60;;;;;;;3.64;94.92;94002.38;6138355;23;20183;-79
2022/01/05 03:10:00;;;;;;;0.90;0.67;;;;;;;3.69;94.85;94010.44;6163377;23;20155;-79
2022/01/05 03:12:26;;;;;;;2.90;0.80;;;;;;;3.59;95.75;94010.50;6160544;23;20151;-80
2022/01/05 03:14:51;;;;;;;0.60;0.60;;;;;;;3.59;96.42;94010.50;6161972;23;20156;-80
2022/01/05 03:17:16;;;;;;;0.93;0.60;;;;;;;3.68;96.35;94006.28;6162515;23;20179;-79
2022/01/05 03:19:42;;;;;;;0.90;0.60;;;;;;;3.62;97.18;94014.53;6162055;23;20166;-79
2022/01/05 03:22:07;;;;;;;0.70;0.50;;;;;;;3.59;97.20;94017.41;6161276;23;20171;-79
2022/01/05 03:24:32;;;;;;;1.43;0.93;;;;;;;3.64;97.65;94020.34;6162949;23;20161;-78
2022/01/05 03:26:57;;;;;;;0.90;0.60;;;;;;;3.60;98.00;94009.56;6161998;23;20170;-78
2022/01/05 03:29:23;;;;;;;0.73;0.60;;;;;;;3.54;98.53;94012.72;6137323;23;20166;-79
2022/01/05 03:31:49;;;;;;;1.33;0.63;;;;;;;3.59;98.45;94022.53;6188241;23;20722;-79
2022/01/05 03:34:18;;;;;;;1.60;0.60;;;;;;;3.51;98.68;94018.09;6162364;23;20154;-78
2022/01/05 03:36:43;;;;;;;0.50;0.50;;;;;;;3.48;99.05;94027.84;6163220;23;20184;-79
2022/01/05 03:39:12;;;;;;;1.57;0.60;;;;;;;3.51;99.19;94033.50;6162483;23;20689;-80
2022/01/05 03:41:38;;;;;;;0.60;0.60;;;;;;;3.42;98.92;94029.22;6161689;23;20162;-80
2022/01/05 03:44:04;;;;;;;1.30;0.87;;;;;;;3.47;97.88;94026.25;6163108;23;20159;-79
2022/01/05 03:46:29;;;;;;;1.23;0.80;;;;;;;3.52;98.06;94026.63;6190006;23;20176;-79
2022/01/05 03:48:55;;;;;;;0.97;0.80;;;;;;;3.56;98.19;94031.34;6163100;23;20166;-80
2022/01/05 03:51:20;;;;;;;2.50;1.00;;;;;;;3.56;98.33;94040.78;6186401;23;20202;-80
2022/01/05 03:53:45;;;;;;;0.63;0.60;;;;;;;3.48;98.57;94043.25;6161930;23;20237;-79
2022/01/05 03:56:11;;;;;;;1.50;0.70;;;;;;;3.52;99.33;94049.72;6161234;23;20189;-79
2022/01/05 03:58:36;;;;;;;1.10;1.00;;;;;;;3.49;99.29;94043.09;6162412;23;20631;-80
2022/01/05 04:01:01;;;;;;;1.50;0.87;;;;;;;3.47;98.64;94047.59;6161614;23;20155;-80
2022/01/05 04:03:27;;;;;;;0.70;0.63;;;;;;;3.57;98.40;94068.88;6137102;23;20170;-80
2022/01/05 04:05:52;;;;;;;0.80;0.80;;;;;;;3.53;98.39;94077.00;6161938;23;20159;-81
2022/01/05 04:08:17;;;;;;;0.47;0.47;;;;;;;3.57;98.39;94080.91;6161764;23;20489;-80
2022/01/05 04:10:43;;;;;;;0.60;0.60;;;;;;;3.50;99.32;94088.34;6162012;23;20484;-80
2022/01/05 04:13:08;;;;;;;0.93;0.50;;;;;;;3.47;99.17;94098.09;6161070;23;20163;-80
2022/01/05 04:15:33;;;;;;;1.73;0.60;;;;;;;3.50;99.40;94103.75;6189707;23;20239;-80
2022/01/05 04:17:59;;;;;;;1.27;0.60;;;;;;;3.35;100.00;94115.41;6138616;23;20186;-80
2022/01/05 04:20:24;;;;;;;1.20;0.90;;;;;;;3.37;98.95;94116.91;6163474;23;20159;-80
2022/01/05 04:22:49;;;;;;;1.77;1.23;;;;;;;3.20;99.60;94116.81;6163100;23;20157;-79
2022/01/05 04:25:15;;;;;;;1.37;0.97;;;;;;;3.24;99.65;94118.13;6163645;23;20158;-80
2022/01/05 04:27:40;;;;;;;1.30;1.00;;;;;;;3.19;99.39;94121.13;6164503;23;20175;-80
2022/01/05 04:30:07;;;;;;;1.00;1.00;;;;;;;3.27;99.79;94117.84;6164027;23;20193;-80
2022/01/05 04:32:34;;;;;;;1.03;0.90;;;;;;;3.11;98.41;94119.25;6145225;23;20317;-79
2022/01/05 04:34:59;;;;;;;1.40;0.90;;;;;;;3.11;98.28;94129.50;6181489;23;20179;-79
2022/01/05 04:37:24;;;;;;;1.27;1.17;;;;;;;3.16;98.44;94123.13;6177848;23;20183;-80
2022/01/05 04:39:50;;;;;;;1.20;1.10;;;;;;;3.01;98.97;94123.59;6190076;23;20167;-80
2022/01/05 04:42:15;;;;;;;1.73;1.20;;;;;;;3.00;98.59;94132.19;6138417;23;20174;-79
2022/01/05 04:44:41;;;;;;;1.07;1.03;;;;;;;2.98;98.23;94136.66;6139919;23;20237;-79
2022/01/05 04:47:07;;;;;;;1.20;1.10;;;;;;;2.93;98.08;94149.09;6139303;23;20640;-77
2022/01/05 04:49:32;;;;;;;0.80;0.80;;;;;;;2.90;98.50;94146.78;6164036;23;20161;-79
2022/01/05 04:51:58;;;;;;;0.83;0.83;;;;;;;2.94;98.39;94158.41;6163240;23;20150;-80
2022/01/05 04:54:23;;;;;;;2.17;1.20;;;;;;;2.89;98.48;94149.47;6163185;23;20155;-80
2022/01/05 04:56:48;;;;;;;3.13;1.07;;;;;;;2.84;98.78;94149.91;6163484;23;20183;-78
2022/01/05 04:59:14;;;;;;;0.93;0.93;;;;;;;2.90;98.73;94157.03;6163535;23;20234;-79
2022/01/05 05:01:39;;;;;;;2.90;1.27;;;;;;;2.85;98.76;94148.97;6137469;23;20187;-79
2022/01/05 05:04:05;;;;;;;1.60;1.00;;;;;;;2.77;99.84;94166.75;6163064;23;20209;-79
2022/01/05 05:06:30;;;;;;;1.30;1.00;;;;;;;2.69;98.88;94171.75;6162456;23;20175;-79
2022/01/05 05:08:55;;;;;;;0.83;0.80;;;;;;;2.68;99.51;94211.94;6163161;23;20670;-79
2022/01/05 05:11:21;;;;;;;0.70;0.70;;;;;;;2.14;97.02;94222.59;6162313;23;20150;-78
2022/01/05 05:13:46;;;;;;;0.80;0.67;;;;;;;1.59;96.40;94239.94;6137725;23;20162;-78
2022/01/05 05:16:11;;;;;;;0.70;0.50;;;;;;;1.15;95.81;94257.16;6164101;23;20185;-79
2022/01/05 05:18:36;;;;;;;1.53;0.80;;;;;;;0.69;98.54;94247.16;6165124;23;20166;-79
2022/01/05 05:21:02;;;;;;;2.03;0.60;;;;;;;0.70;99.08;94259.81;6163840;23;20178;-79
2022/01/05 05:23:28;;;;;;;1.27;0.60;;;;;;;0.64;98.97;94251.84;6163265;23;20154;-79
2022/01/05 05:25:53;;;;;;;1.73;0.80;;;;;;;0.67;99.57;94264.34;6138934;23;20162;-78
2022/01/05 05:28:19;;;;;;;2.50;0.60;;;;;;;0.59;100.00;94267.50;6163415;23;20162;-78
2022/01/05 05:30:44;;;;;;;0.97;0.60;;;;;;;0.67;99.79;94274.56;6133848;23;20624;-78
2022/01/05 05:33:09;;;;;;;0.53;0.53;;;;;;;0.64;99.73;94282.50;6133819;23;20238;-78
2022/01/05 05:35:35;;;;;;;0.50;0.43;;;;;;;0.71;100.00;94292.13;6134210;23;20241;-77
2022/01/05 05:38:00;;;;;;;0.70;0.70;;;;;;;0.75;99.86;94296.06;6160657;23;20508;-78
2022/01/05 05:40:25;;;;;;;0.73;0.70;;;;;;;0.74;99.76;94298.72;6134512;23;20755;-77
2022/01/05 05:42:51;;;;;;;1.20;1.10;;;;;;;0.73;100.00;94304.78;6133985;23;20539;-78
2022/01/05 05:45:16;;;;;;;1.70;1.60;;;;;;;0.75;100.00;94293.50;6111052;23;20163;-78
2022/01/05 05:47:42;;;;;;;1.77;0.93;;;;;;;0.74;100.00;94293.63;6134172;23;20187;-78
2022/01/05 05:50:08;;;;;;;2.60;0.90;;;;;;;0.74;99.98;94301.28;6160749;23;20155;-78
2022/01/05 05:52:33;;;;;;;2.37;0.90;;;;;;;0.79;99.85;94312.75;6109619;23;20500;-78
2022/01/05 05:54:59;;;;;;;1.73;0.93;;;;;;;0.83;100.00;94315.91;6133550;23;20251;-78
2022/01/05 05:57:27;;;;;;;1.10;0.97;;;;;;;0.74;99.87;94327.66;6133856;23;20501;-82
2022/01/05 05:59:52;;;;;;;0.63;0.60;;;;;;;0.63;100.00;94332.78;6160628;23;20163;-79
2022/01/05 06:02:18;;;;;;;2.30;0.70;;;;;;;0.53;100.00;94327.56;6135021;23;20453;-79
2022/01/05 06:04:43;;;;;;;0.53;0.50;;;;;;;0.56;100.00;94334.16;6136749;23;20150;-80
2022/01/05 06:07:09;;;;;;;0.80;0.70;;;;;;;0.54;100.00;94344.50;6136216;23;20232;-79
2022/01/05 06:09:34;;;;;;;0.70;0.70;;;;;;;0.59;100.00;94351.81;6134687;23;20151;-80
2022/01/05 06:11:59;;;;;;;1.17;0.60;;;;;;;0.50;100.00;94353.31;6135084;23;20247;-78
2022/01/05 06:14:24;;;;;;;0.80;0.67;;;;;;;0.54;100.00;94359.03;6136049;23;20155;-77
2022/01/05 06:16:50;;;;;;;1.63;0.70;;;;;;;0.60;100.00;94363.66;6135254;23;20183;-80
2022/01/05 06:19:15;;;;;;;0.90;0.90;;;;;;;0.63;100.00;94365.19;6136767;23;20182;-80
2022/01/05 06:21:40;;;;;;;1.80;0.83;;;;;;;0.65;99.60;94371.78;6110461;23;20163;-79
2022/01/05 06:24:06;;;;;;;1.50;0.80;;;;;;;0.67;99.03;94374.22;6140133;23;20180;-79
2022/01/05 06:26:31;;;;;;;1.73;1.20;;;;;;;0.68;98.59;94371.53;6139466;23;20169;-77
2022/01/05 06:28:56;;;;;;;1.60;0.70;;;;;;;0.72;98.54;94367.84;6165152;23;20161;-78
2022/01/05 06:31:21;;;;;;;1.70;0.90;;;;;;;0.70;98.51;94377.34;6145022;23;20511;-80
2022/01/05 06:33:47;;;;;;;0.90;0.90;;;;;;;0.69;99.30;94385.13;6139840;23;20155;-77
2022/01/05 06:36:12;;;;;;;0.87;0.87;;;;;;;0.72;99.00;94388.28;6138746;23;20238;-78
2022/01/05 06:38:37;;;;;;;1.43;1.10;;;;;;;0.62;98.82;94402.69;6163797;23;20187;-79
2022/01/05 06:41:03;;;;;;;1.10;0.97;;;;;;;0.57;99.60;94414.97;6140552;23;20163;-79
2022/01/05 06:43:30;;;;;;;1.10;1.10;;;;;;;0.53;99.17;94418.69;6114061;23;20163;-77
2022/01/05 06:45:55;;;;;;;1.43;1.00;;;;;;;0.42;99.11;94427.16;6139158;23;20158;-78
2022/01/05 06:48:21;;;;;;;1.73;1.30;;;;;;;0.43;98.49;94433.06;6114872;23;20166;-77
2022/01/05 06:50:46;;;;;;;1.10;1.10;;;;;;;0.35;97.90;94431.06;6138023;23;20177;-79
2022/01/05 06:53:11;;;;;;;2.20;1.30;;;;;;;0.44;98.03;94437.25;6137701;23;20289;-78
2022/01/05 06:55:36;;;;;;;3.30;1.57;;;;;;;0.36;96.84;94448.06;6161996;23;20168;-78
2022/01/05 06:58:02;;;;;;;3.70;1.40;;;;;;;0.31;96.18;94450.13;6112508;23;20190;-78
2022/01/05 07:00:28;;;;;;;5.10;1.47;;;;;;;0.22;96.51;94450.78;6137509;23;20158;-78
2022/01/05 07:02:53;;;;;;;3.50;1.53;;;;;;;0.25;95.86;94463.31;6161799;23;20147;-77
2022/01/05 07:05:18;;;;;;;1.83;1.40;;;;;;;0.19;95.01;94467.16;6137607;23;20163;-78
2022/01/05 07:07:44;;;;;;;5.57;1.67;;;;;;;0.18;95.91;94475.75;6139906;23;20708;-79
2022/01/05 07:10:10;;;;;;;2.60;1.63;;;;;;;0.23;95.28;94480.50;6166839;23;20158;-79
2022/01/05 07:12:36;;;;;;;4.07;1.80;;;;;;;0.20;95.36;94475.63;6137400;23;20158;-78
2022/01/05 07:15:03;;;;;;;4.53;1.93;;;;;;;0.18;96.15;94485.97;6146464;23;20189;-78
2022/01/05 07:17:29;;;;;;;2.30;2.10;;;;;;;0.16;95.11;94495.44;6137291;23;20273;-79
2022/01/05 07:19:54;;;;;;;2.47;2.00;;;;;;;0.18;94.66;94493.63;6135350;23;20157;-78
2022/01/05 07:22:19;;;;;;;3.77;2.87;;;;;;;0.09;95.45;94499.38;6135181;23;20158;-77
2022/01/05 07:24:45;;;;;;;23.43;10.97;;;;;;;0.03;94.59;94507.47;6134910;23;20173;-78
2022/01/05 07:27:10;;;;;;;6.57;4.83;;;;;;;0.11;94.31;94514.59;6112636;23;20178;-78
2022/01/05 07:29:35;;;;;;;7.60;3.30;;;;;;;0.10;94.71;94512.97;6114390;23;20163;-79
2022/01/05 07:32:01;;;;;;;6.97;4.10;;;;;;;0.03;94.82;94504.91;6183848;23;20170;-78
2022/01/05 07:34:26;;;;;;;5.83;5.33;;;;;;;0.02;95.20;94510.13;6163440;23;20173;-78
2022/01/05 07:36:51;;;;;;;7.70;3.90;;;;;;;0.04;93.87;94521.03;6160084;23;20182;-78
2022/01/05 07:39:17;;;;;;;6.40;3.87;;;;;;;-0.04;93.67;94532.63;6162234;23;20238;-78
2022/01/05 07:41:42;;;;;;;7.57;3.77;;;;;;;-0.02;93.61;94529.94;6164859;23;20161;-79
2022/01/05 07:44:07;;;;;;;9.43;2.77;;;;;;;-0.21;94.27;94538.09;6170681;23;20161;-77
2022/01/05 07:46:34;;;;;;;4.57;2.80;;;;;;;-0.07;94.64;94555.00;6182138;23;20210;-76
2022/01/05 07:49:02;;;;;;;5.23;3.03;;;;;;;0.03;93.08;94550.06;6178290;23;20155;-78
2022/01/05 07:51:27;;;;;;;8.30;3.97;;;;;;;-0.09;92.80;94550.00;6165173;23;20173;-78
2022/01/05 07:53:52;;;;;;;6.77;3.27;;;;;;;-0.02;93.34;94551.19;6138828;23;20240;-77
2022/01/05 07:56:17;;;;;;;5.37;2.43;;;;;;;-0.13;93.07;94556.22;6156642;23;20244;-78
2022/01/05 07:58:43;;;;;;;4.47;3.27;;;;;;;-0.12;93.82;94559.59;6158158;23;20161;-79
2022/01/05 08:01:08;;;;;;;8.30;3.30;;;;;;;-0.08;93.78;94563.56;6157232;23;20667;-78
2022/01/05 08:03:33;;;;;;;6.43;2.63;;;;;;;-0.07;93.12;94555.00;6157037;23;20215;-78
2022/01/05 08:06:05;;;;;;;4.77;3.63;;;;;;;-0.18;92.02;94560.81;6184371;23;20158;-79
2022/01/05 08:08:31;;;;;;;4.03;2.50;;;;;;;-0.23;92.77;94560.34;6156784;23;20142;-76
2022/01/05 08:10:56;;;;;;;4.23;2.30;;;;;;;-0.19;91.75;94577.06;6133944;23;20177;-79
2022/01/05 08:13:24;;;;;;;4.37;2.67;;;;;;;-0.33;91.90;94572.94;6156557;23;20157;-77
2022/01/05 08:15:49;;;;;;;5.83;2.70;;;;;;;-0.38;91.46;94569.06;6156661;23;20197;-78
2022/01/05 08:18:14;;;;;;;5.67;2.50;;;;;;;-0.36;92.04;94577.41;6132415;23;20170;-79
2022/01/05 08:20:39;;;;;;;6.73;2.60;;;;;;;-0.46;91.53;94577.22;6157894;23;20179;-78
2022/01/05 08:23:05;;;;;;;7.93;2.70;;;;;;;-0.51;91.78;94574.19;6131676;23;20167;-78
2022/01/05 08:25:30;;;;;;;6.90;2.87;;;;;;;-0.39;91.42;94593.75;6157719;23;20157;-78
2022/01/05 08:27:56;;;;;;;5.67;2.50;;;;;;;-0.49;90.83;94577.44;6157748;23;20182;-78
2022/01/05 08:30:23;;;;;;;8.40;2.73;;;;;;;-0.53;90.03;94586.25;6134818;23;20154;-79
2022/01/05 08:32:49;;;;;;;5.80;2.30;;;;;;;-0.45;89.43;94596.72;6134620;23;20220;-79
2022/01/05 08:35:16;;;;;;;7.23;2.47;;;;;;;-0.49;88.79;94586.84;6121292;23;20213;-78
2022/01/05 08:37:44;;;;;;;6.70;2.40;;;;;;;-0.51;88.08;94593.78;6098399;23;20194;-78
2022/01/05 08:40:11;;;;;;;5.63;2.10;;;;;;;-0.43;86.94;94602.53;6099693;23;20166;-79
2022/01/05 08:42:36;;;;;;;4.30;2.70;;;;;;;-0.35;86.43;94605.38;6098348;23;20193;-79
2022/01/05 08:45:02;;;;;;;5.03;2.10;;;;;;;-0.12;86.67;94614.00;6106796;23;20214;-79
2022/01/05 08:47:27;;;;;;;6.57;2.90;;;;;;;-0.13;86.68;94619.22;6101828;23;20179;-79
2022/01/05 08:49:53;;;;;;;6.77;2.40;;;;;;;-0.12;86.90;94625.94;6125583;23;20156;-79
2022/01/05 08:52:18;;;;;;;10.20;2.83;;;;;;;0.15;87.09;94621.47;6099289;23;20159;-79
2022/01/05 08:54:43;;;;;;;5.17;2.70;;;;;;;0.08;86.95;94637.31;6099954;23;20159;-79
2022/01/05 08:57:08;;;;;;;5.53;3.00;;;;;;;0.10;86.71;94638.88;6099777;23;20193;-79
2022/01/05 08:59:34;;;;;;;7.77;3.47;;;;;;;0.24;87.11;94636.16;6100183;23;20158;-83
2022/01/05 09:01:59;;;;;;;6.83;2.60;;;;;;;-0.02;87.20;94653.28;6098404;23;20165;-80
2022/01/05 09:04:26;;;;;;;6.17;3.10;;;;;;;-0.14;87.41;94643.09;6098297;23;20174;-82
2022/01/05 09:06:51;;;;;;;11.80;4.50;;;;;;;-0.12;87.58;94641.25;6098714;23;20185;-81
2022/01/05 09:09:17;;;;;;;7.43;4.40;;;;;;;-0.07;87.61;94646.88;6098028;23;20162;-82
2022/01/05 09:11:42;;;;;;;11.13;5.77;;;;;;;-0.20;86.20;94663.94;6123938;23;20480;-79
2022/01/05 09:14:07;;;;;;;11.90;4.83;;;;;;;-0.18;87.07;94667.19;6124809;23;20143;-78
2022/01/05 09:16:34;;;;;;;23.57;11.37;;;;;;;-0.22;86.94;94674.25;6097325;23;20798;-78
2022/01/05 09:19:00;;;;;;;16.97;11.90;;;;;;;-0.25;87.48;94671.91;6098986;23;20147;-78
2022/01/05 09:21:26;;;;;;;15.40;8.30;;;;;;;-0.17;87.89;94684.97;6097555;23;20434;-77
2022/01/05 09:23:51;;;;;;;10.63;4.23;;;;;;;-0.33;86.93;94685.19;6098503;23;20152;-77
2022/01/05 09:26:16;;;;;;;8.97;2.63;;;;;;;-0.31;85.19;94673.13;6100525;23;20652;-77
2022/01/05 09:28:44;;;;;;;8.17;3.67;;;;;;;-0.32;85.26;94681.69;6125332;23;20752;-80
2022/01/05 09:31:11;;;;;;;8.93;2.83;;;;;;;-0.22;85.15;94693.84;6098349;23;20514;-80
2022/01/05 09:33:36;;;;;;;11.93;4.30;;;;;;;-0.14;85.23;94705.16;6099261;23;20164;-79
2022/01/05 09:36:10;;;;;;;7.37;3.37;;;;;;;-0.05;84.38;94719.03;6124917;23;20171;-79
2022/01/05 09:44:04;;;;;;;10.57;2.57;;;;;;;-0.33;83.13;94720.91;6126180;23;20225;-78
2022/01/05 09:46:32;;;;;;;6.47;3.20;;;;;;;-0.21;84.16;94729.47;6133207;23;20491;-79
2022/01/05 09:49:03;;;;;;;7.97;2.83;;;;;;;-0.25;83.62;94724.69;6105200;23;20193;-79
2022/01/05 09:51:31;;;;;;;7.07;2.60;;;;;;;-0.42;82.31;94730.91;6078754;23;20167;-76
2022/01/05 09:53:56;;;;;;;9.50;3.33;;;;;;;-0.26;82.14;94730.69;6106472;23;20252;-79
2022/01/05 09:56:22;;;;;;;7.33;2.90;;;;;;;-0.34;82.58;94733.75;6104875;23;20182;-79
2022/01/05 09:58:47;;;;;;;6.30;2.33;;;;;;;-0.41;82.46;94733.34;6102514;23;20159;-78
2022/01/05 10:01:12;;;;;;;9.43;3.08;;;;;;;-0.44;80.17;94719.94;6105096;23;20413;-78
2022/01/05 10:03:38;;;;;;;7.93;2.97;;;;;;;-0.53;79.86;94723.09;6108886;23;20174;-79
2022/01/05 10:06:03;;;;;;;6.90;3.13;;;;;;;-0.66;80.52;94734.13;6110784;23;20159;-78
2022/01/05 10:08:28;;;;;;;8.00;2.30;;;;;;;-0.55;79.87;94741.06;6109170;23;20295;-78
2022/01/05 10:10:54;;;;;;;3.93;2.07;;;;;;;-0.44;79.11;94753.97;6106820;23;20168;-80
2022/01/05 10:13:19;;;;;;;5.50;2.23;;;;;;;-0.51;79.32;94755.28;6100464;23;20159;-79
2022/01/05 10:15:47;;;;;;;7.50;2.53;;;;;;;-0.45;79.80;94754.84;6095318;23;20713;-79
2022/01/05 10:18:18;;;;;;;10.07;3.23;;;;;;;-0.34;80.70;94756.72;6070909;23;20167;-79
2022/01/05 10:21:05;;;;;;;8.20;2.40;;;;;;;-0.22;80.44;94762.72;6071496;23;20682;-79
2022/01/05 10:23:45;;;;;;;6.37;2.47;;;;;;;-0.22;81.14;94755.88;6072104;23;20156;-79
2022/01/05 10:26:30;;;;;;;9.47;2.57;;;;;;;-0.19;80.19;94749.75;6072573;23;20191;-79
2022/01/05 10:28:59;;;;;;;6.83;2.67;;;;;;;-0.21;78.98;94761.81;6071566;23;20156;-79
2022/01/05 10:31:30;;;;;;;8.97;3.23;;;;;;;-0.28;80.17;94757.09;6070862;23;20287;-80
2022/01/05 10:33:56;;;;;;;13.67;2.47;;;;;;;-0.11;79.86;94762.81;6073295;23;20148;-80
2022/01/05 10:36:22;;;;;;;9.60;4.63;;;;;;;0.02;78.45;94756.00;6072166;23;20568;-80
2022/01/05 10:38:58;;;;;;;9.30;3.70;;;;;;;0.01;78.32;94767.13;6072166;23;20231;-80
2022/01/05 10:41:26;;;;;;;7.03;3.47;;;;;;;0.16;77.36;94766.06;6072985;23;20159;-79
2022/01/05 10:44:15;;;;;;;9.17;2.73;;;;;;;0.06;77.68;94771.91;6073343;23;20159;-79
2022/01/05 10:46:51;;;;;;;10.50;2.70;;;;;;;0.04;78.72;94786.53;6073275;23;20203;-80
2022/01/05 10:49:24;;;;;;;8.37;2.87;;;;;;;0.26;79.36;94777.28;6072872;23;20155;-80
2022/01/05 10:51:49;;;;;;;6.97;2.33;;;;;;;0.23;79.07;94782.63;6072263;23;20156;-79
2022/01/05 10:54:23;;;;;;;8.70;2.90;;;;;;;0.40;78.22;94801.09;6073289;23;20165;-80
2022/01/05 10:56:49;;;;;;;10.40;4.10;;;;;;;0.52;78.25;94795.13;6098543;23;20218;-79
2022/01/05 10:59:15;;;;;;;8.90;2.97;;;;;;;0.35;77.07;94800.56;6081429;23;20164;-79
2022/01/05 11:01:41;;;;;;;11.53;3.17;;;;;;;0.39;78.19;94799.47;6072414;23;20166;-79
2022/01/05 11:04:23;;;;;;;10.17;2.53;;;;;;;0.34;77.73;94812.53;6093370;23;20622;-80
2022/01/05 11:07:04;;;;;;;7.73;3.30;;;;;;;0.57;77.94;94793.09;6074831;23;20222;-80
2022/01/05 11:09:31;;;;;;;12.13;3.17;;;;;;;0.44;76.32;94798.25;6073786;23;20227;-80
2022/01/05 11:11:57;;;;;;;11.70;2.83;;;;;;;0.37;76.72;94803.88;6074551;23;20164;-80
2022/01/05 11:14:32;;;;;;;13.77;2.80;;;;;;;0.44;77.00;94795.69;6074151;23;20160;-80
2022/01/05 11:17:00;;;;;;;9.50;3.17;;;;;;;0.50;77.21;94800.34;6051496;23;20184;-80
2022/01/05 11:19:29;;;;;;;15.47;3.27;;;;;;;0.39;76.79;94789.25;6074998;23;20155;-79
2022/01/05 11:22:08;;;;;;;7.57;2.70;;;;;;;0.42;75.75;94791.59;6075054;23;20196;-80
2022/01/05 11:24:43;;;;;;;12.63;3.27;;;;;;;0.48;76.69;94799.66;6073535;23;20230;-80
2022/01/05 11:27:12;;;;;;;10.00;2.50;;;;;;;0.65;74.53;94806.16;6073316;23;20179;-80
2022/01/05 11:29:38;;;;;;;8.77;2.60;;;;;;;0.56;74.66;94796.56;6072113;23;20160;-80
2022/01/05 11:32:04;;;;;;;8.33;2.47;;;;;;;0.43;75.36;94800.88;6051647;23;20196;-79
2022/01/05 11:34:29;;;;;;;9.53;3.67;;;;;;;0.66;76.82;94805.25;6045740;23;20187;-79
2022/01/05 11:37:01;;;;;;;6.07;2.77;;;;;;;0.96;75.90;94804.81;6043466;23;20185;-78
2022/01/05 11:39:27;;;;;;;11.13;2.67;;;;;;;1.03;75.73;94820.56;6021396;23;20161;-78